createdAt,value
2019-04-28T00:02:26.853Z,8.10
2019-04-28T00:04:58.450Z,8.13
2019-04-28T00:07:29.953Z,8.18
2019-04-28T00:10:02.736Z,8.30
2019-04-28T00:12:35.663Z,9.03
2019-04-28T00:15:10.765Z,7.90
2019-04-28T00:17:42.475Z,7.95
2019-04-28T00:20:15.402Z,7.10
2019-04-28T00:22:51.582Z,7.53
2019-04-28T00:25:24.679Z,8.90
2019-04-28T00:27:56.261Z,9.43
2019-04-28T00:30:27.805Z,10.13
2019-04-28T00:32:59.323Z,11.28
2019-04-28T00:35:31.883Z,10.70
2019-04-28T00:38:04.061Z,10.13
2019-04-28T00:40:35.520Z,10.30
2019-04-28T00:43:06.964Z,10.38
2019-04-28T00:45:38.413Z,10.10
2019-04-28T00:48:10.966Z,10.30
2019-04-28T00:50:43.789Z,9.83
2019-04-28T00:53:15.344Z,8.53
2019-04-28T00:55:46.849Z,8.30
2019-04-28T00:58:18.262Z,7.60
2019-04-28T01:00:51.469Z,7.80
2019-04-28T01:03:23.972Z,6.83
2019-04-28T01:05:55.455Z,6.55
2019-04-28T01:08:26.879Z,6.50
2019-04-28T01:10:58.353Z,7.03
2019-04-28T01:13:31.835Z,6.62
2019-04-28T01:16:05.126Z,7.08
2019-04-28T01:18:44.076Z,7.10
2019-04-28T01:21:15.564Z,6.92
2019-04-28T01:23:47.425Z,7.62
2019-04-28T01:26:20.005Z,7.85
2019-04-28T01:28:51.518Z,6.90
2019-04-28T01:31:27.189Z,7.25
2019-04-28T01:34:16.713Z,7.67
2019-04-28T01:36:49.578Z,6.70
2019-04-28T01:39:21.373Z,6.87
2019-04-28T01:41:52.732Z,5.90
2019-04-28T01:44:24.149Z,5.75
2019-04-28T01:46:55.614Z,5.50
2019-04-28T01:49:26.991Z,5.17
2019-04-28T01:52:01.133Z,5.03
2019-04-28T01:54:32.676Z,4.75
2019-04-28T01:57:04.025Z,5.50
2019-04-28T01:59:35.395Z,5.55
2019-04-28T02:02:07.067Z,6.05
2019-04-28T02:04:40.204Z,6.37
2019-04-28T02:07:11.751Z,6.75
2019-04-28T02:09:43.202Z,6.08
2019-04-28T02:12:15.372Z,6.70
2019-04-28T02:14:46.937Z,6.67
2019-04-28T02:17:20.184Z,7.78
2019-04-28T02:19:51.722Z,6.45
2019-04-28T02:22:27.460Z,7.47
2019-04-28T02:25:00.314Z,8.13
2019-04-28T02:27:31.970Z,7.42
2019-04-28T02:30:04.483Z,7.85
2019-04-28T02:32:35.967Z,7.05
2019-04-28T02:35:10.532Z,6.53
2019-04-28T02:37:41.276Z,6.67
2019-04-28T02:40:12.700Z,6.60
2019-04-28T02:42:44.152Z,6.58
2019-04-28T02:45:21.489Z,6.10
2019-04-28T02:47:53.200Z,6.50
2019-04-28T02:50:26.293Z,5.85
2019-04-28T02:53:01.614Z,6.28
2019-04-28T02:55:32.964Z,5.85
2019-04-28T02:58:04.285Z,5.97
2019-04-28T03:00:35.573Z,5.25
2019-04-28T03:03:07.006Z,4.95
2019-04-28T03:05:40.989Z,5.50
2019-04-28T03:08:11.565Z,4.80
2019-04-28T03:10:42.900Z,5.28
2019-04-28T03:13:14.196Z,4.90
2019-04-28T03:15:45.616Z,4.90
2019-04-28T03:18:16.823Z,4.83
2019-04-28T03:20:48.104Z,5.45
2019-04-28T03:23:20.627Z,4.80
2019-04-28T03:25:53.883Z,5.25
2019-04-28T03:28:26.908Z,4.87
2019-04-28T03:31:13.140Z,6.17
2019-04-28T03:33:41.952Z,5.58
2019-04-28T03:36:14.782Z,5.78
2019-04-28T03:38:42.598Z,5.42
2019-04-28T03:41:13.854Z,5.72
2019-04-28T03:43:45.323Z,5.05
2019-04-28T03:46:20.991Z,5.87
2019-04-28T03:48:52.489Z,6.70
2019-04-28T03:51:23.837Z,6.33
2019-04-28T03:53:55.239Z,7.00
2019-04-28T03:56:26.741Z,7.30
2019-04-28T03:59:00.461Z,6.72
2019-04-28T04:01:31.422Z,7.75
2019-04-28T04:04:03.632Z,7.95
2019-04-28T04:06:37.986Z,8.20
2019-04-28T04:09:11.252Z,9.33
2019-04-28T04:11:44.356Z,8.98
2019-04-28T04:14:21.107Z,8.50
2019-04-28T04:17:00.277Z,8.30
2019-04-28T04:19:34.358Z,8.08
2019-04-28T04:22:05.707Z,7.65
2019-04-28T04:24:37.233Z,8.30
2019-04-28T04:27:10.761Z,7.65
2019-04-28T04:29:43.661Z,6.65
2019-04-28T04:32:23.091Z,7.33
2019-04-28T04:34:50.428Z,7.40
2019-04-28T04:37:21.197Z,7.58
2019-04-28T04:39:52.622Z,8.03
2019-04-28T04:42:23.930Z,8.13
2019-04-28T04:44:55.459Z,8.05
2019-04-28T04:47:26.833Z,8.00
2019-04-28T04:50:00.282Z,8.38
2019-04-28T04:52:31.449Z,7.87
2019-04-28T04:55:02.960Z,9.00
2019-04-28T04:57:34.348Z,8.93
2019-04-28T05:00:10.138Z,8.63
2019-04-28T05:02:51.125Z,8.88
2019-04-28T05:05:18.079Z,8.33
2019-04-28T05:07:50.737Z,8.78
2019-04-28T05:10:22.215Z,8.50
2019-04-28T05:12:53.618Z,7.97
2019-04-28T05:15:26.029Z,8.63
2019-04-28T05:17:57.347Z,8.03
2019-04-28T05:20:30.267Z,8.83
2019-04-28T05:23:03.604Z,8.55
2019-04-28T05:25:39.915Z,8.23
2019-04-28T05:28:11.310Z,8.08
2019-04-28T05:30:43.080Z,8.10
2019-04-28T05:33:16.274Z,7.97
2019-04-28T05:35:50.096Z,7.42
2019-04-28T05:38:22.633Z,7.08
2019-04-28T05:40:54.345Z,7.47
2019-04-28T05:43:25.746Z,7.35
2019-04-28T05:45:56.980Z,7.70
2019-04-28T05:48:46.564Z,7.50
2019-04-28T05:51:19.949Z,7.33
2019-04-28T05:53:53.881Z,7.47
2019-04-28T05:56:27.034Z,7.25
2019-04-28T05:59:00.635Z,7.85
2019-04-28T06:01:33.981Z,7.40
2019-04-28T06:04:05.507Z,7.97
2019-04-28T06:06:40.406Z,7.60
2019-04-28T06:09:22.409Z,8.03
2019-04-28T06:11:54.628Z,8.23
2019-04-28T06:14:26.213Z,8.05
2019-04-28T06:16:57.609Z,8.50
2019-04-28T06:19:30.201Z,9.20
2019-04-28T06:22:01.654Z,7.93
2019-04-28T06:24:33.114Z,8.55
2019-04-28T06:27:04.559Z,8.43
2019-04-28T06:29:36.113Z,10.08
2019-04-28T06:32:08.027Z,9.30
2019-04-28T06:34:42.197Z,9.95
2019-04-28T06:37:13.563Z,10.10
2019-04-28T06:39:47.306Z,10.50
2019-04-28T06:44:48.925Z,10.90
2019-04-28T06:47:20.275Z,11.05
2019-04-28T06:49:51.786Z,11.05
2019-04-28T06:52:23.275Z,11.35
2019-04-28T06:54:54.685Z,12.90
2019-04-28T06:57:27.217Z,12.73
2019-04-28T06:59:58.588Z,14.55
2019-04-28T07:02:30.036Z,13.58
2019-04-28T07:05:02.554Z,15.93
2019-04-28T07:07:34.314Z,14.73
2019-04-28T07:10:07.251Z,14.03
2019-04-28T07:12:38.850Z,12.78
2019-04-28T07:15:11.488Z,12.73
2019-04-28T07:17:43.162Z,15.55
2019-04-28T07:20:25.586Z,15.60
2019-04-28T07:22:57.082Z,15.15
2019-04-28T07:25:29.658Z,14.37
2019-04-28T07:28:01.180Z,13.22
2019-04-28T07:30:32.826Z,12.85
2019-04-28T07:33:04.642Z,14.40
2019-04-28T07:35:36.256Z,14.90
2019-04-28T07:38:07.805Z,17.85
2019-04-28T07:40:39.244Z,21.33
2019-04-28T07:43:10.871Z,16.80
2019-04-28T07:45:43.559Z,11.50
2019-04-28T07:48:15.355Z,14.03
2019-04-28T07:50:46.835Z,14.07
2019-04-28T07:53:20.020Z,14.65
2019-04-28T07:55:51.502Z,17.35
2019-04-28T07:58:22.923Z,15.35
2019-04-28T08:00:54.377Z,16.10
2019-04-28T08:03:25.840Z,13.88
2019-04-28T08:05:57.302Z,14.93
2019-04-28T08:08:28.727Z,14.33
2019-04-28T08:11:00.213Z,13.88
2019-04-28T08:13:31.734Z,13.58
2019-04-28T08:16:03.081Z,11.85
2019-04-28T08:18:35.776Z,12.82
2019-04-28T08:21:07.136Z,12.63
2019-04-28T08:23:47.067Z,11.33
2019-04-28T08:26:12.927Z,8.78
2019-04-28T08:28:44.465Z,7.17
2019-04-28T08:31:17.701Z,8.98
2019-04-28T08:34:01.676Z,6.60
2019-04-28T08:36:23.809Z,7.35
2019-04-28T08:38:55.074Z,5.72
2019-04-28T08:41:26.451Z,4.90
2019-04-28T08:43:57.741Z,4.35
2019-04-28T08:46:30.780Z,4.00
2019-04-28T08:49:02.071Z,4.12
2019-04-28T08:51:33.450Z,4.50
2019-04-28T08:54:04.899Z,4.45
2019-04-28T08:56:36.153Z,4.70
2019-04-28T08:59:07.568Z,3.58
2019-04-28T09:01:38.825Z,3.83
2019-04-28T09:04:15.514Z,4.03
2019-04-28T09:06:43.238Z,4.00
2019-04-28T09:09:16.129Z,3.40
2019-04-28T09:11:47.349Z,3.85
2019-04-28T09:14:18.733Z,3.20
2019-04-28T09:16:51.088Z,3.60
2019-04-28T09:19:22.453Z,3.70
2019-04-28T09:21:53.797Z,3.90
2019-04-28T09:24:25.097Z,3.83
2019-04-28T09:26:56.478Z,4.20
2019-04-28T09:29:28.062Z,3.70
2019-04-28T09:31:59.513Z,3.87
2019-04-28T09:34:30.954Z,4.35
2019-04-28T09:37:02.255Z,3.75
2019-04-28T09:39:47.155Z,16.70
2019-04-28T09:42:33.386Z,13.95
2019-04-28T09:45:16.061Z,7.55
2019-04-28T09:47:47.596Z,6.93
2019-04-28T09:50:18.889Z,5.12
2019-04-28T09:52:50.176Z,18.12
2019-04-28T09:55:21.594Z,7.83
2019-04-28T09:57:54.798Z,21.02
2019-04-28T10:02:56.738Z,10.00
2019-04-28T10:05:28.131Z,7.15
2019-04-28T10:07:59.710Z,7.58
2019-04-28T10:10:31.152Z,17.55
2019-04-28T10:13:02.571Z,6.80
2019-04-28T10:15:34.013Z,6.30
2019-04-28T10:18:05.268Z,6.70
2019-04-28T10:20:36.581Z,5.30
2019-04-28T10:23:07.909Z,5.47
2019-04-28T10:25:39.135Z,6.55
2019-04-28T10:28:10.712Z,6.30
2019-04-28T10:30:42.070Z,7.12
2019-04-28T10:33:13.675Z,7.67
2019-04-28T10:35:45.225Z,6.35
2019-04-28T10:38:16.689Z,6.25
2019-04-28T10:40:55.558Z,6.17
2019-04-28T10:43:27.044Z,5.15
2019-04-28T10:45:59.360Z,5.45
2019-04-28T10:48:31.191Z,6.35
2019-04-28T10:51:02.536Z,8.70
2019-04-28T10:53:33.987Z,7.97
2019-04-28T10:56:05.438Z,8.23
2019-04-28T10:58:36.808Z,8.28
2019-04-28T11:01:08.390Z,8.68
2019-04-28T11:03:40.887Z,8.13
2019-04-28T11:06:12.698Z,8.45
2019-04-28T11:08:45.787Z,8.95
2019-04-28T11:11:18.955Z,7.83
2019-04-28T11:13:50.237Z,8.70
2019-04-28T11:16:23.224Z,12.70
2019-04-28T11:18:54.645Z,10.78
2019-04-28T11:21:25.991Z,10.90
2019-04-28T11:23:57.614Z,9.33
2019-04-28T11:26:29.199Z,9.73
2019-04-28T11:29:00.706Z,9.93
2019-04-28T11:31:32.164Z,9.00
2019-04-28T11:34:05.229Z,10.30
2019-04-28T11:39:10.020Z,11.20
2019-04-28T11:41:43.045Z,11.22
2019-04-28T11:44:14.614Z,11.38
2019-04-28T11:46:46.136Z,11.28
2019-04-28T11:49:17.632Z,11.60
2019-04-28T11:51:49.274Z,11.08
2019-04-28T11:54:20.796Z,11.30
2019-04-28T11:56:52.297Z,10.70
2019-04-28T11:59:23.895Z,10.82
2019-04-28T12:01:55.542Z,10.30
2019-04-28T12:04:27.009Z,10.78
2019-04-28T12:06:58.448Z,11.35
2019-04-28T12:09:34.257Z,10.78
2019-04-28T12:12:08.721Z,10.38
2019-04-28T12:14:41.860Z,10.23
2019-04-28T12:17:27.025Z,9.88
2019-04-28T12:20:00.302Z,9.28
2019-04-28T12:25:02.148Z,9.28
2019-04-28T12:27:33.798Z,8.95
2019-04-28T12:30:05.953Z,9.40
2019-04-28T12:32:37.628Z,9.43
2019-04-28T12:35:09.274Z,7.22
2019-04-28T12:37:40.701Z,7.15
2019-04-28T12:40:12.658Z,6.83
2019-04-28T12:42:44.275Z,9.40
2019-04-28T12:45:17.323Z,9.80
2019-04-28T12:47:48.732Z,8.05
2019-04-28T12:50:21.958Z,8.05
2019-04-28T12:52:53.461Z,7.92
2019-04-28T12:55:24.976Z,6.97
2019-04-28T12:57:56.566Z,6.85
2019-04-28T13:00:29.550Z,7.20
2019-04-28T13:03:18.717Z,7.78
2019-04-28T13:06:01.579Z,7.95
2019-04-28T13:08:24.969Z,6.90
2019-04-28T13:10:56.452Z,6.58
2019-04-28T13:13:28.014Z,7.03
2019-04-28T13:15:59.471Z,6.95
2019-04-28T13:18:31.062Z,6.72
2019-04-28T13:21:02.345Z,6.50
2019-04-28T13:23:34.742Z,6.80
2019-04-28T13:26:05.968Z,6.50
2019-04-28T13:28:37.251Z,6.92
2019-04-28T13:31:08.572Z,7.70
2019-04-28T13:33:53.816Z,9.58
2019-04-28T13:36:15.016Z,8.25
2019-04-28T13:41:16.505Z,7.65
2019-04-28T13:43:47.887Z,7.78
2019-04-28T13:46:19.141Z,7.62
2019-04-28T13:48:50.476Z,7.35
2019-04-28T13:51:21.967Z,7.42
2019-04-28T13:53:53.559Z,7.60
2019-04-28T13:56:25.022Z,7.50
2019-04-28T13:58:58.109Z,7.85
2019-04-28T14:01:31.239Z,9.33
2019-04-28T14:04:16.417Z,7.72
2019-04-28T14:06:49.513Z,7.35
2019-04-28T14:09:20.773Z,7.37
2019-04-28T14:11:52.328Z,8.53
2019-04-28T14:14:24.139Z,8.73
2019-04-28T14:16:55.645Z,10.58
2019-04-28T14:19:26.998Z,9.13
2019-04-28T14:21:58.383Z,12.40
2019-04-28T14:24:29.819Z,17.23
2019-04-28T14:27:02.335Z,10.27
2019-04-28T14:29:33.854Z,14.23
2019-04-28T14:32:05.283Z,15.78
2019-04-28T14:34:36.905Z,13.83
2019-04-28T14:37:08.352Z,10.30
2019-04-28T14:39:39.978Z,9.00
2019-04-28T14:42:11.437Z,8.13
2019-04-28T14:44:42.885Z,8.35
2019-04-28T14:47:14.389Z,8.23
2019-04-28T14:49:45.786Z,8.13
2019-04-28T14:52:17.306Z,8.40
2019-04-28T14:54:49.801Z,8.60
2019-04-28T14:57:21.303Z,8.85
2019-04-28T14:59:52.710Z,9.45
2019-04-28T15:02:43.117Z,9.83
2019-04-28T15:05:19.166Z,9.10
2019-04-28T15:08:08.545Z,9.00
2019-04-28T15:10:53.742Z,8.70
2019-04-28T15:13:26.185Z,8.50
2019-04-28T15:15:57.551Z,8.03
2019-04-28T15:18:29.333Z,8.43
2019-04-28T15:21:00.738Z,8.35
2019-04-28T15:23:32.202Z,8.75
2019-04-28T15:26:03.705Z,9.30
2019-04-28T15:28:35.061Z,8.23
2019-04-28T15:31:06.559Z,7.87
2019-04-28T15:33:37.970Z,7.33
2019-04-28T15:36:09.620Z,7.17
2019-04-28T15:38:41.159Z,7.28
2019-04-28T15:41:21.526Z,6.70
2019-04-28T15:43:45.647Z,7.03
2019-04-28T15:46:17.380Z,7.58
2019-04-28T15:48:49.061Z,8.23
2019-04-28T15:51:20.551Z,7.70
2019-04-28T15:53:52.180Z,8.33
2019-04-28T15:56:25.281Z,8.28
2019-04-28T15:58:56.962Z,8.53
2019-04-28T16:01:28.452Z,8.70
2019-04-28T16:03:59.991Z,9.48
2019-04-28T16:06:31.473Z,9.35
2019-04-28T16:09:03.247Z,10.58
2019-04-28T16:14:06.855Z,11.40
2019-04-28T16:16:39.404Z,11.08
2019-04-28T16:19:10.916Z,11.03
2019-04-28T16:21:42.526Z,13.93
2019-04-28T16:24:14.230Z,11.90
2019-04-28T16:26:45.728Z,10.60
2019-04-28T16:29:17.218Z,10.88
2019-04-28T16:31:48.877Z,10.38
2019-04-28T16:34:20.423Z,9.40
2019-04-28T16:36:51.790Z,10.05
2019-04-28T16:39:23.308Z,10.50
2019-04-28T16:41:54.919Z,10.45
2019-04-28T16:44:26.438Z,8.98
2019-04-28T16:46:57.890Z,10.43
2019-04-28T16:49:29.319Z,10.15
2019-04-28T16:52:00.733Z,11.68
2019-04-28T16:54:32.376Z,9.95
2019-04-28T16:57:12.516Z,10.37
2019-04-28T16:59:51.312Z,10.82
2019-04-28T17:02:27.349Z,11.03
2019-04-28T17:04:58.907Z,10.53
2019-04-28T17:07:30.368Z,10.80
2019-04-28T17:10:03.011Z,10.20
2019-04-28T17:12:34.497Z,10.48
2019-04-28T17:15:07.252Z,10.88
2019-04-28T17:17:38.735Z,10.13
2019-04-28T17:20:10.730Z,10.80
2019-04-28T17:22:42.202Z,9.55
2019-04-28T17:25:13.689Z,9.80
2019-04-28T17:27:45.052Z,10.40
2019-04-28T17:30:17.403Z,10.43
2019-04-28T17:32:49.532Z,10.15
2019-04-28T17:35:22.036Z,10.63
2019-04-28T17:38:06.010Z,11.00
2019-04-28T17:40:29.050Z,10.95
2019-04-28T17:43:00.584Z,11.40
2019-04-28T17:45:32.112Z,12.40
2019-04-28T17:48:05.433Z,12.20
2019-04-28T17:53:08.810Z,11.45
2019-04-28T17:55:40.153Z,11.65
2019-04-28T17:58:11.575Z,11.43
2019-04-28T18:00:47.533Z,11.18
2019-04-28T18:03:20.614Z,11.63
2019-04-28T18:05:56.643Z,11.33
2019-04-28T18:08:28.236Z,11.70
2019-04-28T18:10:59.730Z,11.33
2019-04-28T18:13:31.332Z,11.38
2019-04-28T18:16:13.574Z,13.98
2019-04-28T18:18:46.846Z,12.45
2019-04-28T18:21:18.207Z,12.55
2019-04-28T18:23:49.618Z,11.78
2019-04-28T18:26:21.094Z,13.05
2019-04-28T18:28:52.546Z,13.80
2019-04-28T18:31:40.625Z,12.82
2019-04-28T18:34:29.854Z,13.58
2019-04-28T18:37:14.661Z,14.28
2019-04-28T18:40:03.867Z,16.00
2019-04-28T18:42:41.101Z,14.03
2019-04-28T18:45:12.982Z,14.53
2019-04-28T18:47:44.485Z,13.98
2019-04-28T18:50:16.042Z,15.00
2019-04-28T18:52:47.702Z,15.05
2019-04-28T18:55:19.148Z,13.45
2019-04-28T18:57:50.753Z,14.60
2019-04-28T19:00:23.795Z,14.10
2019-04-28T19:02:55.355Z,13.78
2019-04-28T19:05:28.545Z,13.75
2019-04-28T19:08:01.673Z,15.18
2019-04-28T19:10:40.297Z,15.15
2019-04-28T19:13:12.869Z,16.27
2019-04-28T19:15:48.909Z,15.75
2019-04-28T19:18:22.175Z,13.28
2019-04-28T19:20:53.449Z,13.00
2019-04-28T19:23:24.813Z,13.72
2019-04-28T19:25:56.163Z,13.53
2019-04-28T19:28:27.592Z,12.58
2019-04-28T19:30:59.130Z,13.75
2019-04-28T19:33:30.589Z,13.10
2019-04-28T19:36:01.923Z,13.93
2019-04-28T19:38:33.378Z,12.37
2019-04-28T19:41:04.835Z,13.93
2019-04-28T19:43:36.307Z,14.23
2019-04-28T19:46:09.480Z,13.35
2019-04-28T19:48:40.991Z,13.80
2019-04-28T19:51:12.383Z,11.43
2019-04-28T19:53:43.848Z,12.95
2019-04-28T19:56:19.720Z,13.15
2019-04-28T19:59:01.951Z,13.32
2019-04-28T20:01:34.194Z,11.43
2019-04-28T20:04:05.671Z,11.63
2019-04-28T20:06:37.091Z,13.10
2019-04-28T20:09:08.903Z,13.80
2019-04-28T20:14:12.341Z,11.90
2019-04-28T20:16:43.866Z,10.40
2019-04-28T20:19:15.325Z,10.63
2019-04-28T20:21:46.736Z,12.10
2019-04-28T20:24:19.584Z,13.45
2019-04-28T20:26:52.299Z,13.72
2019-04-28T20:29:23.751Z,17.12
2019-04-28T20:31:55.322Z,18.30
2019-04-28T20:34:26.912Z,18.27
2019-04-28T20:37:02.697Z,19.00
2019-04-28T20:39:34.215Z,18.05
2019-04-28T20:42:16.381Z,17.15
2019-04-28T20:44:47.850Z,17.60
2019-04-28T20:47:19.320Z,20.80
2019-04-28T20:49:50.827Z,18.17
2019-04-28T20:52:22.221Z,18.27
2019-04-28T20:54:53.587Z,17.73
2019-04-28T20:57:25.227Z,19.45
2019-04-28T20:59:56.685Z,22.37
2019-04-28T21:02:28.097Z,23.45
2019-04-28T21:04:59.510Z,24.12
2019-04-28T21:07:30.927Z,22.95
2019-04-28T21:10:02.385Z,23.95
2019-04-28T21:12:34.863Z,25.43
2019-04-28T21:15:07.316Z,27.25
2019-04-28T21:17:38.753Z,25.50
2019-04-28T21:20:10.469Z,23.52
2019-04-28T21:22:41.841Z,21.40
2019-04-28T21:25:13.331Z,20.45
2019-04-28T21:27:44.783Z,19.75
2019-04-28T21:30:16.779Z,17.98
2019-04-28T21:32:48.401Z,16.07
2019-04-28T21:35:19.905Z,16.67
2019-04-28T21:37:51.332Z,15.85
2019-04-28T21:40:23.170Z,14.90
2019-04-28T21:43:05.033Z,15.88
2019-04-28T21:45:50.052Z,14.65
2019-04-28T21:51:04.371Z,14.03
2019-04-28T21:53:36.065Z,14.38
2019-04-28T21:56:07.533Z,14.43
2019-04-28T21:58:38.978Z,16.05
2019-04-28T22:01:13.400Z,16.12
2019-04-28T22:03:46.900Z,13.58
2019-04-28T22:06:18.777Z,15.18
2019-04-28T22:08:50.431Z,14.30
2019-04-28T22:11:21.859Z,14.70
2019-04-28T22:13:53.483Z,18.57
2019-04-28T22:16:25.002Z,24.02
2019-04-28T22:18:56.514Z,24.27
2019-04-28T22:21:28.620Z,23.98
2019-04-28T22:24:01.776Z,25.72
2019-04-28T22:26:43.523Z,25.35
2019-04-28T22:29:14.986Z,28.38
2019-04-28T22:31:46.981Z,28.45
2019-04-28T22:34:18.534Z,28.67
2019-04-28T22:36:49.998Z,27.52
2019-04-28T22:39:21.543Z,28.10
2019-04-28T22:41:53.025Z,27.52
2019-04-28T22:44:24.543Z,26.33
2019-04-28T22:46:55.970Z,27.17
2019-04-28T22:49:27.511Z,26.77
2019-04-28T22:51:59.040Z,26.77
2019-04-28T22:54:35.367Z,27.42
2019-04-28T22:57:26.733Z,26.97
2019-04-28T22:59:59.805Z,26.77
2019-04-28T23:02:31.975Z,24.87
2019-04-28T23:05:05.735Z,23.80
2019-04-28T23:07:37.146Z,23.65
2019-04-28T23:10:09.414Z,21.82
2019-04-28T23:12:40.902Z,19.48
2019-04-28T23:15:13.997Z,18.48
2019-04-28T23:17:45.641Z,18.80
2019-04-28T23:20:17.081Z,18.17
2019-04-28T23:22:50.311Z,17.77
2019-04-28T23:25:21.904Z,17.42
2019-04-28T23:27:53.385Z,17.55
2019-04-28T23:30:36.626Z,16.62
2019-04-28T23:33:08.133Z,16.05
2019-04-28T23:35:39.932Z,13.58
2019-04-28T23:38:11.563Z,12.98
2019-04-28T23:40:44.602Z,10.72
2019-04-28T23:43:17.927Z,9.25
2019-04-28T23:45:49.345Z,9.68
2019-04-28T23:48:20.851Z,9.50
2019-04-28T23:50:53.902Z,8.33
2019-04-28T23:53:42.951Z,8.48
2019-04-28T23:56:14.465Z,8.03
2019-04-28T23:58:45.900Z,7.97
